Historique des mesures à Cassis (13260), France
Quotidien Résumé Janvier 19, 2018 Unités:  Métrique    US   Métrique/US
« Précédent (Jour)
Suivant (Jour) »
Quotidien Hebdomadaire Mensuel Annuel Période au choix
  Maximum: Minimum: Moyenne:
Température: -17.8 °C -12 °C -11.4 °C
Point de rosée: -17.8 °C -16.6 °C -15.2 °C
Humidité: Humidity % 49 % 60 %
Vitesse du vent: 0 km/h 0 km/h 17.7 km/h
Rafales: 0 km/h - -
Vent:- - WSW
Pression: 0 hPa 34188.4 hPa -
Précipitations: 0 mm    
Historical Graphs
 
 
Mesures pour : Janvier 19, 2018
Heure Temperature Point de rosée Pression Vent Vitesse du vent Rafales Humidité Pluie (par heure) Conditions
-17.8 °C -17.8 °C 0 hPa Calm     Humidity % 0 mm SoftwareType W/m2
00:12 -11.7 °C -14.4 °C 34303.6 hPa Calm   3.4 km/h 72 % 0 mm open2300-1.11 W/m2
01:12 -11.7 °C -14.4 °C 34293.4 hPa WNW 15.6 km/h 19.6 km/h 72 % 0 mm open2300-1.11 W/m2
02:12 -11.6 °C -14.2 °C 34293.4 hPa WNW 9.8 km/h 9.8 km/h 73 % 0 mm open2300-1.11 W/m2
03:12 -11.8 °C -14.2 °C 34293.4 hPa Calm   8 km/h 74 % 0 mm open2300-1.11 W/m2
04:12 -11.9 °C -14.3 °C 34269.7 hPa Calm   5.1 km/h 75 % 0 mm open2300-1.11 W/m2
05:12 -11.6 °C -13.9 °C 34246 hPa NNW 16.3 km/h 16.3 km/h 75 % 0 mm open2300-1.11 W/m2
06:12 -11.7 °C -14.1 °C 34235.8 hPa North 12.2 km/h 12.2 km/h 75 % 0 mm open2300-1.11 W/m2
07:12 -11.5 °C -14 °C 34222.3 hPa NNE 11.6 km/h 22 km/h 74 % 0 mm open2300-1.11 W/m2
08:12 -11.6 °C -14.1 °C 34235.8 hPa WNW 19.2 km/h 19.2 km/h 74 % 0 mm open2300-1.11 W/m2
09:12 -11.3 °C -14.1 °C 34212.1 hPa NNW 12.2 km/h 46.3 km/h 72 % 0 mm open2300-1.11 W/m2
10:12 -11.2 °C -14.2 °C 34212.1 hPa NNW 24.8 km/h 46.3 km/h 70 % 0 mm open2300-1.11 W/m2
11:12 -10.6 °C -14.8 °C 34212.1 hPa WNW 64.2 km/h 64.2 km/h 60 % 0 mm open2300-1.11 W/m2
12:12 -10.1 °C -15.5 °C 34198.6 hPa NNW 23 km/h 56.2 km/h 52 % 0 mm open2300-1.11 W/m2
13:12 -10.2 °C -16 °C 34198.6 hPa WNW 62.6 km/h 62.6 km/h 49 % 0 mm open2300-1.11 W/m2
14:12 -10.1 °C -15.7 °C 34188.4 hPa WNW 38.8 km/h 47.3 km/h 50 % 0 mm open2300-1.11 W/m2
15:12 -9.8 °C -15.2 °C 34198.6 hPa North 19.2 km/h 19.2 km/h 52 % 0 mm open2300-1.11 W/m2
16:12 -9.8 °C -15.4 °C 34212.1 hPa North 42.2 km/h 42.2 km/h 51 % 0 mm open2300-1.11 W/m2
17:12 -10.3 °C -16.1 °C 34212.1 hPa NNW 9.8 km/h 48.1 km/h 49 % 0 mm open2300-1.11 W/m2
18:12 -10.7 °C -16.5 °C 34246 hPa NNW 5.6 km/h 31.9 km/h 49 % 0 mm open2300-1.11 W/m2
19:12 -11 °C -16.6 °C 34269.7 hPa NNW 8.9 km/h 19.2 km/h 50 % 0 mm open2300-1.11 W/m2
20:12 -11.3 °C -16.6 °C 34293.4 hPa WNW 5.1 km/h 9.3 km/h 52 % 0 mm open2300-1.11 W/m2
21:12 -11.7 °C -16.6 °C 34303.6 hPa NW 10.3 km/h 15.6 km/h 55 % 0 mm open2300-1.11 W/m2
22:12 -11.8 °C -16.3 °C 34327.3 hPa NNW 15 km/h 15 km/h 57 % 0 mm open2300-1.11 W/m2
23:12 -12 °C -16.3 °C 34327.3 hPa WNW 15 km/h 23.8 km/h 59 % 0 mm open2300-1.11 W/m2
Observations météo à CASSIS
WU-History script by Weather Underground - 1 mb